Time;durP1;ratioP1;P1;durP2;ratioP2;P2;SDS_P1;SDS_P2;PMS_P1;PMS_P2;Temp;Humidity;BMP_temperature;BMP_pressure;BME280_temperature;BME280_humidity;BME280_pressure;Samples;Min_cycle;Max_cycle;Signal;HPM_P1;HPM_P2
2021/08/29 00:02:13;;;;;;;;;13.50;10.50;;;;;19.70;57.07;101632.59;5082555;27;45694;-55
2021/08/29 00:04:39;;;;;;;;;7.00;7.00;;;;;19.65;56.51;101635.47;5062085;28;45353;-56
2021/08/29 00:07:05;;;;;;;;;7.00;6.33;;;;;19.60;57.09;101633.94;5079284;27;47403;-57
2021/08/29 00:09:30;;;;;;;;;8.00;6.00;;;;;19.56;57.12;101625.09;5078894;27;45768;-57
2021/08/29 00:11:56;;;;;;;;;7.00;5.00;;;;;19.53;57.15;101625.19;5079262;27;45645;-57
2021/08/29 00:14:21;;;;;;;;;6.00;6.00;;;;;19.48;57.06;101624.53;5078309;27;45292;-56
2021/08/29 00:16:47;;;;;;;;;5.50;5.50;;;;;19.48;57.38;101626.38;5079164;27;47284;-57
2021/08/29 00:19:12;;;;;;;;;6.75;6.00;;;;;19.46;57.26;101628.25;5087778;27;45762;-56
2021/08/29 00:21:38;;;;;;;;;6.00;6.00;;;;;19.43;57.45;101623.84;5091218;27;45280;-56
2021/08/29 00:24:04;;;;;;;;;8.00;8.00;;;;;19.44;57.32;101622.94;5060830;27;45416;-52
2021/08/29 00:26:29;;;;;;;;;7.50;4.50;;;;;19.43;57.57;101626.53;5073036;27;47168;-56
2021/08/29 00:28:55;;;;;;;;;8.00;8.00;;;;;19.40;57.64;101618.63;5059697;27;45678;-56
2021/08/29 00:31:20;;;;;;;;;6.67;6.00;;;;;19.39;57.72;101623.13;5082159;27;45335;-56
2021/08/29 00:33:46;;;;;;;;;7.00;6.00;;;;;19.37;57.61;101624.16;5082018;27;45356;-56
2021/08/29 00:36:11;;;;;;;;;7.00;7.00;;;;;19.31;57.69;101613.63;5075595;27;46358;-57
2021/08/29 00:38:37;;;;;;;;;6.00;6.00;;;;;19.30;58.15;101618.13;5077364;27;45377;-56
2021/08/29 00:41:07;;;;;;;;;9.75;7.75;;;;;19.29;57.78;101624.47;5082227;27;45380;-56
2021/08/29 00:43:32;;;;;;;;;4.67;4.67;;;;;19.30;58.12;101622.66;5064896;27;45594;-55
2021/08/29 00:45:58;;;;;;;;;6.00;6.00;;;;;19.31;58.15;101611.84;5081273;27;47333;-56
2021/08/29 00:48:23;;;;;;;;;4.67;4.67;;;;;19.31;58.03;101614.53;5086762;27;45239;-56
2021/08/29 00:50:49;;;;;;;;;5.67;5.00;;;;;19.31;58.15;101619.91;5063546;28;45612;-57
2021/08/29 00:53:18;;;;;;;;;6.67;6.33;;;;;19.29;57.79;101612.81;5063775;28;45307;-56
2021/08/29 00:55:45;;;;;;;;;4.33;4.33;;;;;19.28;58.23;101611.94;5081547;27;47032;-55
2021/08/29 00:58:10;;;;;;;;;8.00;6.00;;;;;19.25;57.86;101609.41;5081379;27;46171;-56
2021/08/29 01:00:43;;;;;;;;;6.33;5.33;;;;;19.22;58.06;101603.28;5081632;27;45478;-55
2021/08/29 01:03:19;;;;;;;;;6.00;6.00;;;;;19.23;58.43;101610.41;5062107;28;45498;-55
2021/08/29 01:05:51;;;;;;;;;5.67;4.00;;;;;19.22;58.76;101606.84;5081205;27;47174;-53
2021/08/29 01:08:18;;;;;;;;;4.00;3.33;;;;;19.23;58.22;101605.91;5069130;27;45500;-55
2021/08/29 01:10:57;;;;;;;;;7.00;7.00;;;;;19.22;58.35;101606.84;5062447;27;45397;-56
2021/08/29 01:13:32;;;;;;;;;5.50;4.50;;;;;19.20;58.53;101608.75;5081779;27;45745;-56
2021/08/29 01:16:01;;;;;;;;;6.50;6.50;;;;;19.18;58.26;101607.03;5062510;28;47106;-55
2021/08/29 01:18:28;;;;;;;;;6.00;6.00;;;;;19.15;58.66;101604.47;5086090;27;45880;-53
2021/08/29 01:20:56;;;;;;;;;6.33;5.67;;;;;19.14;58.42;101595.53;5096293;27;45814;-54
2021/08/29 01:23:23;;;;;;;;;6.00;6.00;;;;;19.14;58.36;101602.72;5081223;27;45259;-54
2021/08/29 01:25:55;;;;;;;;;6.67;5.67;;;;;19.13;58.84;101607.25;5080681;27;46342;-54
2021/08/29 01:28:24;;;;;;;;;5.67;5.67;;;;;19.11;58.88;101609.13;5081462;27;45365;-55
2021/08/29 01:30:50;;;;;;;;;5.33;5.33;;;;;19.11;59.00;101606.44;5064824;27;45410;-55
2021/08/29 01:33:16;;;;;;;;;6.00;6.00;;;;;19.11;59.02;101610.00;5090564;27;45684;-56
2021/08/29 01:35:43;;;;;;;;;4.67;4.67;;;;;19.11;58.94;101609.13;5081001;27;47560;-56
2021/08/29 01:38:09;;;;;;;;;8.75;7.75;;;;;19.09;58.75;101605.63;5080433;27;45350;-56
2021/08/29 01:40:35;;;;;;;;;6.67;6.67;;;;;19.06;59.21;101606.66;5062259;28;45377;-54
2021/08/29 01:43:03;;;;;;;;;6.67;5.67;;;;;19.06;59.06;101612.03;5081108;28;45474;-56
2021/08/29 01:45:30;;;;;;;;;5.33;5.33;;;;;19.04;59.00;101611.19;5061967;28;45451;-56
2021/08/29 01:47:57;;;;;;;;;10.33;7.67;;;;;19.05;59.05;101612.94;5085159;27;45950;-55
2021/08/29 01:50:23;;;;;;;;;5.67;5.00;;;;;19.05;58.91;101599.47;5080767;27;45451;-56
2021/08/29 01:52:48;;;;;;;;;7.33;7.33;;;;;19.02;59.24;101602.31;5080627;27;45599;-54
2021/08/29 01:55:14;;;;;;;;;6.67;6.67;;;;;19.02;59.31;101604.13;5080377;27;47399;-58
2021/08/29 01:57:39;;;;;;;;;7.00;6.67;;;;;19.03;59.54;101608.56;5080626;27;45783;-55
2021/08/29 02:00:06;;;;;;;;;8.00;7.00;;;;;19.03;59.09;101604.06;5062258;28;45354;-56
2021/08/29 02:02:32;;;;;;;;;6.67;6.67;;;;;19.04;59.64;101610.31;5083465;27;45592;-55
2021/08/29 02:04:58;;;;;;;;;8.67;8.00;;;;;19.05;59.51;101604.88;5061842;28;47171;-56
2021/08/29 02:07:30;;;;;;;;;8.00;8.00;;;;;19.07;59.62;101613.78;5080131;27;45299;-55
2021/08/29 02:10:07;;;;;;;;;8.67;8.67;;;;;19.10;59.42;101610.06;5080583;27;45355;-55
2021/08/29 02:12:37;;;;;;;;;9.67;9.67;;;;;19.09;59.49;101608.31;5053633;28;45588;-55
2021/08/29 02:15:07;;;;;;;;;10.00;8.33;;;;;19.09;59.54;101614.56;5061936;28;48089;-55
2021/08/29 02:17:34;;;;;;;;;8.67;8.00;;;;;19.09;59.40;101614.56;5085079;27;45294;-54
2021/08/29 02:20:04;;;;;;;;;6.25;6.25;;;;;19.08;59.47;101620.03;5080941;27;45443;-55
2021/08/29 02:22:32;;;;;;;;;8.00;8.00;;;;;19.04;59.57;101619.25;5080674;28;45480;-55
2021/08/29 02:24:57;;;;;;;;;9.67;9.67;;;;;19.01;59.55;101613.16;5080156;27;47878;-56
2021/08/29 02:27:23;;;;;;;;;9.00;9.00;;;;;18.99;59.54;101615.91;5080020;28;45601;-57
2021/08/29 02:29:49;;;;;;;;;9.75;9.75;;;;;18.99;59.57;101615.91;5080508;27;45267;-57
2021/08/29 02:32:16;;;;;;;;;9.25;9.25;;;;;19.02;59.76;101625.66;5090750;27;45413;-55
2021/08/29 02:34:42;;;;;;;;;10.00;9.00;;;;;19.03;59.79;101614.81;5079788;28;48295;-56
2021/08/29 02:37:10;;;;;;;;;9.00;8.00;;;;;19.06;59.60;101621.91;5062021;28;45586;-56
2021/08/29 02:39:38;;;;;;;;;12.75;10.50;;;;;19.06;59.81;101620.09;5080091;27;45714;-55
2021/08/29 02:42:05;;;;;;;;;9.00;9.00;;;;;19.04;59.47;101619.25;5080532;28;45262;-53
2021/08/29 02:44:32;;;;;;;;;9.25;9.25;;;;;19.02;59.62;101612.19;5079834;28;47175;-53
2021/08/29 02:46:58;;;;;;;;;11.75;9.00;;;;;19.01;59.63;101613.16;5078971;27;45391;-55
2021/08/29 02:49:24;;;;;;;;;10.50;9.75;;;;;18.97;60.01;101615.09;5084912;27;45515;-55
2021/08/29 02:51:51;;;;;;;;;10.50;9.00;;;;;18.98;59.82;101615.97;5079231;28;45586;-55
2021/08/29 02:54:19;;;;;;;;;10.75;10.75;;;;;18.99;60.07;101612.34;5079923;28;48121;-53
2021/08/29 02:56:47;;;;;;;;;10.00;9.25;;;;;18.97;59.60;101609.72;5079374;28;45358;-56
2021/08/29 02:59:13;;;;;;;;;13.00;12.00;;;;;18.95;59.90;101608.91;5062186;28;45356;-56
2021/08/29 03:01:39;;;;;;;;;14.00;12.25;;;;;18.93;59.95;101610.81;5081337;27;45579;-55
2021/08/29 03:04:04;;;;;;;;;6.50;5.50;;;;;18.95;59.92;101614.28;5044937;28;46927;-54
2021/08/29 03:06:30;;;;;;;;;11.00;10.25;;;;;18.96;59.98;101612.47;5079908;28;45683;-54
2021/08/29 03:08:56;;;;;;;;;7.50;7.50;;;;;18.94;60.23;101614.38;5079636;27;45421;-53
2021/08/29 03:11:22;;;;;;;;;16.00;11.75;;;;;18.92;59.94;101603.63;5080775;27;45549;-54
2021/08/29 03:13:49;;;;;;;;;11.75;11.25;;;;;18.91;60.09;101615.34;5079591;27;46077;-53
2021/08/29 03:16:16;;;;;;;;;10.25;10.25;;;;;18.93;60.12;101607.19;5079384;27;46012;-53
2021/08/29 03:18:43;;;;;;;;;8.00;8.00;;;;;18.91;60.33;101606.41;5061428;28;45536;-53
2021/08/29 03:21:09;;;;;;;;;10.00;10.00;;;;;18.88;60.40;101615.47;5079578;28;45455;-54
2021/08/29 03:23:35;;;;;;;;;11.75;10.25;;;;;18.87;60.31;101608.34;5061417;28;47009;-53
2021/08/29 03:26:01;;;;;;;;;9.00;9.00;;;;;18.87;60.26;101605.66;5079439;28;45904;-55
2021/08/29 03:28:26;;;;;;;;;9.67;8.67;;;;;18.86;60.30;101606.59;5079971;27;45422;-54
2021/08/29 03:30:53;;;;;;;;;8.50;7.75;;;;;18.85;60.57;101594.09;5079171;27;45605;-57
2021/08/29 03:33:18;;;;;;;;;9.25;9.25;;;;;18.81;60.33;101601.44;5079473;28;48025;-55
2021/08/29 03:35:45;;;;;;;;;9.67;9.00;;;;;18.78;60.36;101588.09;5079614;27;45305;-56
2021/08/29 03:38:11;;;;;;;;;9.00;9.00;;;;;18.72;60.61;101590.19;5061462;28;45360;-55
2021/08/29 03:40:39;;;;;;;;;7.50;7.50;;;;;18.69;60.65;101593.00;5058956;28;45792;-55
2021/08/29 03:43:06;;;;;;;;;8.25;8.25;;;;;18.67;60.80;101592.16;5079083;28;47368;-54
2021/08/29 03:45:32;;;;;;;;;10.50;9.00;;;;;18.65;60.51;101588.66;5078214;28;45465;-55
2021/08/29 03:47:58;;;;;;;;;11.75;9.00;;;;;18.63;60.83;101579.75;5083454;27;45287;-54
2021/08/29 03:50:24;;;;;;;;;12.00;10.00;;;;;18.62;60.86;101583.38;5080220;27;45443;-54
2021/08/29 03:52:49;;;;;;;;;13.00;12.50;;;;;18.57;60.81;101585.41;5060681;28;46975;-56
2021/08/29 03:55:15;;;;;;;;;7.00;7.00;;;;;18.56;61.00;101581.84;5061048;28;45434;-55
2021/08/29 03:57:41;;;;;;;;;10.50;10.50;;;;;18.55;61.02;101590.84;5079045;28;45440;-55
2021/08/29 04:00:07;;;;;;;;;11.75;8.50;;;;;18.53;60.96;101582.81;5078589;28;45533;-55
2021/08/29 04:02:33;;;;;;;;;8.50;8.00;;;;;18.50;61.30;101582.94;5062971;28;47846;-54
2021/08/29 04:04:59;;;;;;;;;10.00;7.00;;;;;18.49;61.12;101583.88;5082115;28;45775;-54
2021/08/29 04:07:27;;;;;;;;;11.50;9.00;;;;;18.46;60.95;101592.09;5082854;27;45475;-54
2021/08/29 04:09:53;;;;;;;;;8.00;7.00;;;;;18.41;61.44;101594.06;5085146;27;45315;-55
2021/08/29 04:12:25;;;;;;;;;8.75;8.75;;;;;18.42;61.31;101590.47;5089574;27;47326;-53
2021/08/29 04:14:50;;;;;;;;;9.50;9.00;;;;;18.41;61.19;101596.75;5083476;27;45434;-55
2021/08/29 04:17:16;;;;;;;;;6.50;6.25;;;;;18.39;61.26;101595.06;5064166;28;45395;-53
2021/08/29 04:19:42;;;;;;;;;8.75;7.75;;;;;18.36;61.36;101589.81;5047502;28;45590;-54
2021/08/29 04:22:09;;;;;;;;;9.50;7.00;;;;;18.33;61.19;101598.88;5064247;28;47906;-55
2021/08/29 04:24:35;;;;;;;;;7.00;7.00;;;;;18.32;61.23;101596.28;5063892;28;45311;-54
2021/08/29 04:27:01;;;;;;;;;9.75;8.25;;;;;18.29;61.33;101589.19;5081992;28;45448;-58
2021/08/29 04:29:27;;;;;;;;;10.00;10.00;;;;;18.26;61.36;101594.69;5063751;28;45715;-55
2021/08/29 04:31:56;;;;;;;;;10.50;10.50;;;;;18.26;61.32;101594.69;5081827;28;48402;-54
2021/08/29 04:34:22;;;;;;;;;12.00;9.00;;;;;18.24;61.68;101586.69;5063691;28;45398;-55
2021/08/29 04:36:47;;;;;;;;;9.00;9.00;;;;;18.24;61.40;101593.88;5063748;28;45276;-54
2021/08/29 04:39:13;;;;;;;;;11.25;9.75;;;;;18.23;61.60;101590.31;5084458;27;45743;-53
2021/08/29 04:41:39;;;;;;;;;6.50;6.50;;;;;18.23;61.58;101586.75;5085931;27;47197;-56
2021/08/29 04:44:07;;;;;;;;;11.75;9.75;;;;;18.22;61.70;101585.00;5058206;28;45326;-54
2021/08/29 04:46:33;;;;;;;;;8.50;8.50;;;;;18.22;61.59;101587.69;5081233;28;45500;-54
2021/08/29 04:48:59;;;;;;;;;7.25;7.25;;;;;18.21;61.79;101588.63;5084764;27;45357;-56
2021/08/29 04:51:24;;;;;;;;;8.00;6.75;;;;;18.23;61.89;101597.50;5081750;28;45681;-58
2021/08/29 04:53:50;;;;;;;;;7.00;7.00;;;;;18.27;62.00;101603.63;5081824;28;45466;-59
2021/08/29 04:56:15;;;;;;;;;7.50;7.50;;;;;18.28;61.72;101603.56;5081890;28;45420;-59
2021/08/29 04:58:41;;;;;;;;;7.00;7.00;;;;;18.32;61.72;101601.66;5063581;28;45373;-56
2021/08/29 05:01:06;;;;;;;;;11.00;9.00;;;;;18.35;61.88;101602.38;5075702;27;46522;-55
2021/08/29 05:03:34;;;;;;;;;9.50;9.00;;;;;18.38;61.78;101598.69;5090812;27;45646;-55
2021/08/29 05:06:01;;;;;;;;;8.25;8.00;;;;;18.38;61.48;101596.88;5081339;28;45393;-56
2021/08/29 05:08:26;;;;;;;;;7.50;7.50;;;;;18.41;61.59;101601.25;5074425;27;45441;-54
2021/08/29 05:10:52;;;;;;;;;8.50;8.50;;;;;18.42;61.75;101601.22;5080904;28;47592;-55
2021/08/29 05:13:17;;;;;;;;;7.75;7.75;;;;;18.45;61.62;101595.72;5080597;28;45728;-55
2021/08/29 05:15:43;;;;;;;;;7.00;7.00;;;;;18.47;61.40;101603.72;5081474;28;45427;-55
2021/08/29 05:18:08;;;;;;;;;8.75;7.00;;;;;18.47;61.53;101601.03;5063436;28;45684;-54
2021/08/29 05:20:34;;;;;;;;;8.75;6.50;;;;;18.49;61.48;101604.53;5090932;27;46996;-56
2021/08/29 05:22:59;;;;;;;;;11.00;11.00;;;;;18.49;61.46;101602.69;5080593;28;45424;-54
2021/08/29 05:25:25;;;;;;;;;8.75;8.50;;;;;18.53;61.41;101609.69;5081662;28;45561;-56
2021/08/29 05:27:51;;;;;;;;;8.75;7.75;;;;;18.54;61.32;101606.06;5081189;28;45328;-54
2021/08/29 05:30:16;;;;;;;;;12.25;12.25;;;;;18.53;61.26;101603.44;5062726;28;47143;-55
2021/08/29 05:32:42;;;;;;;;;9.25;9.25;;;;;18.50;61.38;101603.56;5084183;27;45338;-58
2021/08/29 05:35:08;;;;;;;;;9.75;8.50;;;;;18.47;61.47;101607.28;5081349;28;45378;-55
2021/08/29 05:37:33;;;;;;;;;11.25;11.25;;;;;18.48;61.76;101614.41;5081167;28;45418;-56
2021/08/29 05:39:59;;;;;;;;;11.50;9.50;;;;;18.51;61.47;101610.69;5081293;27;48150;-56
2021/08/29 05:42:24;;;;;;;;;7.50;7.25;;;;;18.53;61.20;101609.69;5080959;28;45483;-54
2021/08/29 05:44:50;;;;;;;;;9.00;7.25;;;;;18.53;61.29;101607.00;5062328;28;45438;-55
2021/08/29 05:47:15;;;;;;;;;10.25;8.00;;;;;18.52;61.26;101605.25;5081194;27;45660;-54
2021/08/29 05:49:41;;;;;;;;;11.75;9.00;;;;;18.53;61.57;101609.69;5062663;28;47267;-55
2021/08/29 05:52:07;;;;;;;;;9.50;9.50;;;;;18.57;61.58;101612.28;5063138;28;45430;-55
2021/08/29 05:54:32;;;;;;;;;10.50;8.25;;;;;18.57;61.20;101613.16;5080862;27;45345;-55
2021/08/29 05:56:58;;;;;;;;;8.50;7.25;;;;;18.58;61.09;101605.97;5063111;28;45744;-54
2021/08/29 05:59:24;;;;;;;;;8.50;7.50;;;;;18.61;61.37;101611.22;5080588;27;47214;-55
2021/08/29 06:01:49;;;;;;;;;9.00;9.00;;;;;18.62;61.38;101605.78;5063237;28;45327;-55
2021/08/29 06:04:15;;;;;;;;;9.25;9.00;;;;;18.65;61.25;101604.78;5081029;27;45714;-55
2021/08/29 06:06:40;;;;;;;;;8.25;7.75;;;;;18.65;61.25;101616.44;5080472;28;45910;-56
2021/08/29 06:09:06;;;;;;;;;10.50;8.75;;;;;18.65;61.27;101600.28;5092956;27;48189;-55
2021/08/29 06:11:33;;;;;;;;;7.50;7.50;;;;;18.65;61.16;101597.59;5081014;27;45296;-55
2021/08/29 06:13:59;;;;;;;;;8.50;8.00;;;;;18.67;60.96;101598.41;5054406;28;45634;-54
2021/08/29 06:16:25;;;;;;;;;7.00;7.00;;;;;18.68;61.24;101597.50;5062181;28;45284;-54
2021/08/29 06:18:51;;;;;;;;;8.75;7.25;;;;;18.69;60.89;101604.63;5079965;28;47655;-55
2021/08/29 06:21:18;;;;;;;;;8.50;7.00;;;;;18.71;61.11;101609.94;5079967;28;45766;-56
2021/08/29 06:23:43;;;;;;;;;9.75;9.75;;;;;18.72;61.28;101607.19;5080509;28;45436;-55
2021/08/29 06:26:09;;;;;;;;;7.50;7.50;;;;;18.76;61.28;101605.22;5077731;28;45629;-56
2021/08/29 06:28:34;;;;;;;;;8.00;8.00;;;;;18.78;61.11;101608.72;5079847;28;47269;-56
2021/08/29 06:31:00;;;;;;;;;11.50;9.75;;;;;18.77;60.95;101605.16;5048001;27;45510;-54
2021/08/29 06:33:25;;;;;;;;;11.00;11.00;;;;;18.78;61.00;101612.28;5069937;28;45483;-57
2021/08/29 06:35:51;;;;;;;;;12.25;8.50;;;;;18.82;60.86;101610.38;5080194;27;45508;-57
2021/08/29 06:38:16;;;;;;;;;7.00;7.00;;;;;18.87;60.86;101615.53;5079477;27;48243;-57
2021/08/29 06:40:42;;;;;;;;;7.50;6.00;;;;;18.89;60.75;101619.03;5062089;28;45698;-56
2021/08/29 06:43:07;;;;;;;;;7.00;7.00;;;;;18.90;60.76;101623.47;5079757;28;45603;-56
2021/08/29 06:45:33;;;;;;;;;5.50;5.50;;;;;18.92;60.57;101621.59;5061256;28;45357;-57
2021/08/29 06:47:58;;;;;;;;;8.00;7.75;;;;;18.96;60.51;101632.19;5063723;27;47255;-56
2021/08/29 06:50:24;;;;;;;;;7.00;7.00;;;;;18.98;60.70;101621.34;5079758;27;45834;-56
2021/08/29 06:52:50;;;;;;;;;7.00;6.75;;;;;19.02;60.65;101620.28;5061307;27;45342;-57
2021/08/29 06:55:15;;;;;;;;;6.00;6.00;;;;;19.02;60.46;101625.66;5061520;28;45522;-58
2021/08/29 06:57:40;;;;;;;;;7.75;7.75;;;;;19.02;60.57;101623.84;5061259;27;47154;-56
2021/08/29 07:00:06;;;;;;;;;8.75;6.75;;;;;19.01;60.13;101631.97;5079517;27;45405;-56
2021/08/29 07:02:32;;;;;;;;;6.50;6.50;;;;;19.03;60.39;101633.66;5079927;27;45543;-57
2021/08/29 07:04:57;;;;;;;;;7.50;6.75;;;;;19.06;60.22;101629.97;5061120;28;45433;-57
2021/08/29 07:07:23;;;;;;;;;6.25;6.25;;;;;19.07;60.46;101624.53;5061169;27;47841;-57
2021/08/29 07:09:48;;;;;;;;;6.50;5.75;;;;;19.10;60.04;101627.09;5079480;27;45423;-56
2021/08/29 07:12:14;;;;;;;;;7.00;7.00;;;;;19.14;60.35;101626.94;5079657;27;45424;-56
2021/08/29 07:14:40;;;;;;;;;6.00;6.00;;;;;19.17;60.33;101624.13;5079588;27;45565;-56
2021/08/29 07:17:06;;;;;;;;;6.00;5.33;;;;;19.21;59.91;101623.06;5061347;28;48020;-56
2021/08/29 07:19:32;;;;;;;;;7.00;7.00;;;;;19.23;60.08;101627.44;5079170;27;45393;-55
2021/08/29 07:21:57;;;;;;;;;7.50;7.00;;;;;19.24;60.00;101626.50;5061280;27;45719;-55
2021/08/29 07:24:22;;;;;;;;;6.00;6.00;;;;;19.25;60.08;101633.63;5079351;27;45342;-53
2021/08/29 07:26:48;;;;;;;;;7.00;7.00;;;;;19.27;59.47;101631.72;5060413;28;48121;-54
2021/08/29 07:29:14;;;;;;;;;7.33;7.33;;;;;19.31;59.98;101628.00;5061116;28;45382;-56
2021/08/29 07:31:40;;;;;;;;;8.33;6.67;;;;;19.36;59.59;101619.69;5091112;27;45435;-55
2021/08/29 07:34:05;;;;;;;;;5.33;5.00;;;;;19.38;59.84;101620.50;5079641;27;45382;-55
2021/08/29 07:36:31;;;;;;;;;5.25;5.25;;;;;19.37;59.48;101630.41;5078992;28;45434;-55
2021/08/29 07:38:57;;;;;;;;;5.33;5.00;;;;;19.39;59.52;101620.44;5078448;28;45452;-54
2021/08/29 07:41:22;;;;;;;;;5.67;5.67;;;;;19.44;59.34;101620.25;5079281;27;45429;-54
2021/08/29 07:43:48;;;;;;;;;6.67;6.67;;;;;19.48;59.35;101627.25;5079079;28;45657;-56
2021/08/29 07:46:14;;;;;;;;;6.00;6.00;;;;;19.56;59.28;101622.41;5078369;28;48169;-55
2021/08/29 07:48:40;;;;;;;;;9.00;9.00;;;;;19.64;59.38;101624.75;5073005;27;45711;-54
2021/08/29 07:51:06;;;;;;;;;6.33;6.00;;;;;19.71;59.01;101622.69;5060599;28;45386;-56
2021/08/29 07:53:31;;;;;;;;;8.00;6.00;;;;;19.77;58.85;101630.47;5078983;28;45331;-55
2021/08/29 07:55:57;;;;;;;;;8.00;7.00;;;;;19.84;59.08;101637.34;5059993;28;46925;-56
2021/08/29 07:58:22;;;;;;;;;7.00;6.00;;;;;19.90;58.31;101629.84;5078665;28;46065;-56
2021/08/29 08:00:48;;;;;;;;;8.00;7.75;;;;;19.93;58.61;101639.59;5078483;28;45456;-55
2021/08/29 08:03:14;;;;;;;;;8.00;6.50;;;;;19.96;58.48;101634.97;5061200;28;45526;-57
2021/08/29 08:05:39;;;;;;;;;6.25;6.25;;;;;20.02;57.90;101632.91;5078497;27;47126;-56
2021/08/29 08:08:05;;;;;;;;;6.25;5.25;;;;;20.07;57.98;101630.88;5078591;27;45287;-56
2021/08/29 08:10:31;;;;;;;;;6.00;5.25;;;;;20.12;57.89;101629.72;5078778;27;45670;-56
2021/08/29 08:12:58;;;;;;;;;7.25;7.25;;;;;20.19;58.08;101627.59;5078474;28;45349;-57
2021/08/29 08:15:24;;;;;;;;;6.50;6.25;;;;;20.23;57.61;101629.22;5056348;28;47091;-55
2021/08/29 08:17:50;;;;;;;;;7.25;6.00;;;;;20.24;58.06;101633.66;5070925;28;45776;-56
2021/08/29 08:20:16;;;;;;;;;7.00;7.00;;;;;20.24;57.37;101628.28;5078500;27;45685;-55
2021/08/29 08:22:42;;;;;;;;;6.75;6.75;;;;;20.22;57.34;101631.03;5078658;28;45876;-57
2021/08/29 08:25:08;;;;;;;;;7.50;7.50;;;;;20.20;57.22;101637.44;5060012;28;47024;-56
2021/08/29 08:27:35;;;;;;;;;8.25;6.25;;;;;20.21;57.56;101629.31;5078083;28;45409;-56
2021/08/29 08:30:02;;;;;;;;;6.25;6.25;;;;;20.25;57.53;101628.19;5077612;27;45352;-56
2021/08/29 08:32:29;;;;;;;;;7.25;7.00;;;;;20.30;57.48;101622.56;5081647;27;45304;-56
2021/08/29 08:34:54;;;;;;;;;6.00;6.00;;;;;20.31;57.14;101624.31;5077928;28;47300;-56
2021/08/29 08:37:20;;;;;;;;;5.75;5.75;;;;;20.33;57.56;101624.25;5077945;28;45337;-57
2021/08/29 08:39:45;;;;;;;;;6.00;6.00;;;;;20.36;57.56;101626.81;5077322;28;45661;-56
2021/08/29 08:42:11;;;;;;;;;7.75;7.75;;;;;20.39;57.10;101624.84;5052912;28;45488;-56
2021/08/29 08:44:36;;;;;;;;;5.75;5.00;;;;;20.42;57.14;101630.09;5059394;28;46831;-56
2021/08/29 08:47:06;;;;;;;;;4.25;4.25;;;;;20.44;56.82;101630.91;5077559;28;46095;-55
2021/08/29 08:49:33;;;;;;;;;7.50;5.00;;;;;20.43;56.68;101631.84;5086219;27;46008;-55
2021/08/29 08:52:06;;;;;;;;;5.00;5.00;;;;;20.45;56.88;101635.34;5081706;28;45283;-55
2021/08/29 08:54:32;;;;;;;;;5.75;5.75;;;;;20.49;57.10;101634.28;5081464;28;47442;-55
2021/08/29 08:56:58;;;;;;;;;6.00;6.00;;;;;20.53;56.59;101632.28;5080309;27;46330;-56
2021/08/29 08:59:24;;;;;;;;;6.00;6.00;;;;;20.56;56.30;101632.13;5063026;27;45617;-53
2021/08/29 09:01:49;;;;;;;;;5.00;5.00;;;;;20.59;56.66;101628.44;5088759;27;45447;-58
2021/08/29 09:04:16;;;;;;;;;7.25;6.25;;;;;20.61;56.36;101626.53;5062977;28;47732;-57
2021/08/29 09:06:43;;;;;;;;;6.00;6.00;;;;;20.64;56.10;101629.06;5081078;27;45672;-55
2021/08/29 09:09:08;;;;;;;;;4.67;4.67;;;;;20.69;56.51;101629.72;5080888;27;45628;-60
2021/08/29 09:11:35;;;;;;;;;6.75;6.00;;;;;20.75;56.42;101624.91;5062687;27;45485;-56
2021/08/29 09:14:01;;;;;;;;;6.25;6.25;;;;;20.82;56.33;101625.44;5080798;27;47716;-56
2021/08/29 09:16:29;;;;;;;;;4.50;4.50;;;;;20.87;56.04;101623.41;5062535;28;45368;-56
2021/08/29 09:18:57;;;;;;;;;7.75;7.75;;;;;20.90;56.01;101625.94;5079649;27;45751;-55
2021/08/29 09:21:27;;;;;;;;;6.50;6.25;;;;;20.92;55.67;101613.25;5081094;27;45413;-56
2021/08/29 09:23:54;;;;;;;;;5.00;5.00;;;;;20.98;55.79;101610.25;5062659;28;47098;-55
2021/08/29 09:26:22;;;;;;;;;6.00;6.00;;;;;21.00;55.49;101611.06;5080636;27;45929;-55
2021/08/29 09:28:49;;;;;;;;;6.00;4.75;;;;;21.05;55.53;101616.19;5080978;27;45401;-57
2021/08/29 09:31:16;;;;;;;;;5.25;5.00;;;;;21.07;55.58;101612.47;5080663;27;45441;-57
2021/08/29 09:33:42;;;;;;;;;4.50;4.50;;;;;21.13;55.45;101614.00;5062864;28;47688;-56
2021/08/29 09:36:10;;;;;;;;;7.25;5.50;;;;;21.15;55.11;101610.25;5063378;27;45537;-55
2021/08/29 09:38:41;;;;;;;;;6.25;6.25;;;;;21.17;55.21;101618.28;5080468;27;45507;-58
2021/08/29 09:41:23;;;;;;;;;5.25;5.25;;;;;21.20;54.42;101614.53;5080597;27;45720;-55
2021/08/29 09:43:49;;;;;;;;;7.50;7.50;;;;;21.21;54.87;101609.06;5080699;27;48210;-54
2021/08/29 09:46:14;;;;;;;;;6.33;5.33;;;;;21.27;54.73;101608.78;5080047;27;45386;-56
2021/08/29 09:48:46;;;;;;;;;6.00;5.00;;;;;21.35;54.53;101606.56;5085131;27;45746;-55
2021/08/29 09:51:12;;;;;;;;;7.00;7.00;;;;;21.44;54.67;101605.19;5064899;28;45442;-57
2021/08/29 09:53:46;;;;;;;;;6.00;6.00;;;;;21.51;54.14;101611.16;5080056;27;47392;-56
2021/08/29 09:56:20;;;;;;;;;7.75;7.75;;;;;21.53;53.88;101609.25;5079793;27;45279;-57
2021/08/29 09:58:46;;;;;;;;;6.25;5.75;;;;;21.49;53.59;101605.84;5080268;27;45516;-56
2021/08/29 10:01:14;;;;;;;;;9.25;7.25;;;;;21.51;54.20;101608.44;5083102;27;45777;-56
2021/08/29 10:03:44;;;;;;;;;9.25;8.00;;;;;21.49;53.51;101610.38;5080379;27;46947;-57
2021/08/29 10:06:25;;;;;;;;;5.00;5.00;;;;;21.41;53.68;101608.94;5083210;27;45603;-56
2021/08/29 10:08:52;;;;;;;;;7.25;7.25;;;;;21.32;54.62;101606.72;5080204;27;45877;-56
2021/08/29 10:11:20;;;;;;;;;6.50;6.50;;;;;21.26;54.38;101611.56;5080198;27;45651;-57
2021/08/29 10:13:46;;;;;;;;;6.50;6.50;;;;;21.22;54.42;101610.84;5080163;27;47217;-56
2021/08/29 10:16:13;;;;;;;;;9.25;8.75;;;;;21.29;54.58;101608.69;5080196;27;45519;-55
2021/08/29 10:18:40;;;;;;;;;9.50;8.75;;;;;21.36;54.44;101611.00;5080079;27;45499;-56
2021/08/29 10:21:09;;;;;;;;;7.50;7.50;;;;;21.45;54.10;101615.03;5080251;27;45426;-56
2021/08/29 10:23:38;;;;;;;;;9.25;8.00;;;;;21.53;54.31;101599.31;5079956;27;45403;-56
2021/08/29 10:26:05;;;;;;;;;9.00;9.00;;;;;21.60;53.67;101603.44;5072422;27;45444;-57
2021/08/29 10:28:37;;;;;;;;;6.75;6.75;;;;;21.68;53.74;101592.22;5079659;27;45420;-56
2021/08/29 10:31:04;;;;;;;;;8.75;8.75;;;;;21.76;53.85;101602.59;5079643;27;45414;-56
2021/08/29 10:33:31;;;;;;;;;9.25;9.25;;;;;21.74;53.57;101602.69;5061471;27;45471;-55
2021/08/29 10:35:57;;;;;;;;;9.25;8.25;;;;;21.72;53.72;101601.88;5079849;28;45433;-56
2021/08/29 10:38:24;;;;;;;;;10.50;10.00;;;;;21.73;53.76;101606.34;5079800;28;45424;-55
2021/08/29 10:40:51;;;;;;;;;9.00;8.75;;;;;21.74;53.26;101603.56;5052548;28;45537;-56
2021/08/29 10:43:17;;;;;;;;;8.25;8.25;;;;;21.79;53.69;101602.44;5059719;28;48917;-55
2021/08/29 10:45:43;;;;;;;;;12.25;10.25;;;;;21.83;53.23;101598.59;5078961;28;45390;-55
2021/08/29 10:48:11;;;;;;;;;9.25;9.00;;;;;21.88;53.15;101608.22;5081001;27;45574;-58
2021/08/29 10:50:38;;;;;;;;;9.75;9.75;;;;;21.95;52.95;101589.81;5061845;28;45480;-55
2021/08/29 10:53:33;;;;;;;;;8.00;8.00;;;;;22.04;52.65;101586.63;5079324;28;48332;-56
2021/08/29 10:56:33;;;;;;;;;8.50;8.50;;;;;22.10;52.74;101589.00;5061286;28;45412;-56
2021/08/29 10:59:07;;;;;;;;;7.50;7.50;;;;;22.13;52.47;101594.25;5034814;28;45461;-56
2021/08/29 11:01:32;;;;;;;;;9.50;9.00;;;;;22.16;52.52;101588.66;5079573;28;45510;-56
2021/08/29 11:03:58;;;;;;;;;6.50;6.50;;;;;22.22;52.15;101587.44;5079140;28;47247;-56
2021/08/29 11:06:50;;;;;;;;;8.75;7.00;;;;;22.26;51.58;101584.50;5081620;27;45609;-54
2021/08/29 11:12:23;;;;;;;;;11.75;10.50;;;;;22.35;51.83;101577.66;5078999;28;45429;-56
2021/08/29 11:14:52;;;;;;;;;9.50;9.25;;;;;22.45;51.76;101580.72;5059849;28;46823;-59
2021/08/29 11:17:19;;;;;;;;;8.25;8.25;;;;;22.50;51.19;101573.22;5079160;28;46148;-56
2021/08/29 11:19:47;;;;;;;;;8.25;8.25;;;;;22.51;51.02;101575.84;5060800;28;45394;-56
2021/08/29 11:22:19;;;;;;;;;10.25;10.00;;;;;22.50;50.65;101570.53;5072014;28;45599;-56
2021/08/29 11:25:00;;;;;;;;;6.50;6.50;;;;;22.48;50.61;101576.00;5078927;28;48282;-56
2021/08/29 11:27:34;;;;;;;;;10.75;10.00;;;;;22.45;50.71;101578.88;5078971;28;45406;-54